Overview Statistics Trail Chart Weather Telemetry Raw packets
 

This is the latest recevied weather packets stored in our database for station/object HI3LT-13. If no packets are shown the sender has not sent any weather packets the latest 10 day(s).

<< 41 42 43 44 45 46 47 >>
Time Temp. Humidity Pressure Rain* Wind** Luminosity Snow
1787988594 24.44° C 93% 1015 hPa 0 mm - - -
1787987993 24.44° C 93% 1015 hPa 0 mm - - -
1787987393 24.44° C 93% 1015 hPa 0 mm - - -
1787986792 25° C 89% 1015 hPa 0 mm - - -
1787986191 25° C 89% 1015 hPa 0 mm - - -
1787985590 25° C 88% 1015 hPa 0 mm - - -
1787984990 25° C 87% 1016 hPa 0 mm - - -
1787984389 25.56° C 87% 1016 hPa 0 mm - - -
1787983788 25° C 87% 1016 hPa 0 mm - - -
1787983187 25.56° C 86% 1016 hPa 0 mm - - -
1787982587 25.56° C 86% 1016 hPa 0 mm - - -
1787981986 25.56° C 85% 1016 hPa 0 mm - - -
1787981386 25.56° C 84% 1016 hPa 0 mm - - -
1787980785 26.11° C 83% 1016 hPa 0 mm - - -
1787980184 22.22° C 78% 1016 hPa 0 mm - - -
1787979583 22.78° C 78% 1016 hPa 0 mm - - -
1787978983 23.33° C 78% 1016 hPa 0 mm - - -
1787978382 27.22° C 89% 1016 hPa 0 mm - - -
1787977781 26.67° C 83% 1016 hPa 0 mm - - -
1787977181 26.67° C 83% 1016 hPa 0.76 mm - - -
1787976580 26.67° C 82% 1016 hPa 0 mm - - -
1787975979 26.67° C 80% 1016 hPa 0 mm - - -
1787975378 26.67° C 80% 1016 hPa 0 mm - - -
1787974778 26.67° C 81% 1016 hPa 0 mm - - -
1787974177 26.67° C 81% 1016 hPa 0 mm - - -

* Rain latest hour (hover to see other rain measurements)
** Current wind speed in m/s (hover to see current wind gust speed)